createdAt,value
2022-08-24T00:02:12.058Z,12.04
2022-08-24T00:04:41.444Z,11.79
2022-08-24T00:07:15.884Z,11.54
2022-08-24T00:09:56.119Z,11.63
2022-08-24T00:12:24.079Z,11.21
2022-08-24T00:14:51.690Z,11.52
2022-08-24T00:17:20.632Z,11.50
2022-08-24T00:19:51.075Z,11.61
2022-08-24T00:22:20.987Z,11.72
2022-08-24T00:24:50.416Z,11.74
2022-08-24T00:27:18.550Z,11.59
2022-08-24T00:29:47.354Z,11.39
2022-08-24T00:32:14.509Z,11.29
2022-08-24T00:34:56.155Z,11.47
2022-08-24T00:37:29.965Z,11.48
2022-08-24T00:39:58.059Z,11.48
2022-08-24T00:42:26.720Z,11.49
2022-08-24T00:44:54.147Z,11.54
2022-08-24T00:47:27.302Z,11.46
2022-08-24T00:50:01.558Z,11.54
2022-08-24T00:52:36.422Z,11.56
2022-08-24T00:55:10.071Z,11.51
2022-08-24T00:57:42.176Z,11.36
2022-08-24T01:00:17.712Z,11.15
2022-08-24T01:02:49.152Z,10.94
2022-08-24T01:05:19.912Z,11.07
2022-08-24T01:07:49.363Z,11.16
2022-08-24T01:10:21.387Z,11.13
2022-08-24T01:12:59.984Z,11.21
2022-08-24T01:15:30.361Z,11.17
2022-08-24T01:18:16.605Z,10.95
2022-08-24T01:20:59.874Z,10.90
2022-08-24T01:23:41.748Z,11.05
2022-08-24T01:26:12.450Z,11.06
2022-08-24T01:28:44.632Z,11.02
2022-08-24T01:31:11.594Z,11.00
2022-08-24T01:33:38.456Z,10.99
2022-08-24T01:36:21.728Z,11.04
2022-08-24T01:38:59.029Z,10.93
2022-08-24T01:41:29.120Z,10.70
2022-08-24T01:43:58.599Z,10.67
2022-08-24T01:46:28.022Z,10.81
2022-08-24T01:48:57.983Z,10.88
2022-08-24T01:51:29.091Z,10.67
2022-08-24T01:53:56.086Z,10.91
2022-08-24T01:56:23.064Z,10.75
2022-08-24T01:58:50.384Z,10.94
2022-08-24T02:01:44.103Z,10.67
2022-08-24T02:04:12.849Z,10.72
2022-08-24T02:06:47.277Z,10.56
2022-08-24T02:09:17.563Z,10.69
2022-08-24T02:11:45.720Z,10.37
2022-08-24T02:14:16.817Z,10.51
2022-08-24T02:16:44.934Z,10.71
2022-08-24T02:19:14.693Z,10.62
2022-08-24T02:21:42.824Z,10.64
2022-08-24T02:24:10.899Z,10.78
2022-08-24T02:26:41.778Z,10.65
2022-08-24T02:29:11.393Z,10.56
2022-08-24T02:31:41.220Z,10.40
2022-08-24T02:34:09.372Z,10.50
2022-08-24T02:36:37.006Z,10.60
2022-08-24T02:39:07.987Z,10.60
2022-08-24T02:41:37.865Z,10.60
2022-08-24T02:44:07.110Z,10.53
2022-08-24T02:46:36.809Z,10.61
2022-08-24T02:49:11.895Z,10.43
2022-08-24T02:51:45.954Z,10.28
2022-08-24T02:54:18.693Z,10.36
2022-08-24T02:56:48.200Z,10.44
2022-08-24T02:59:16.740Z,10.27
2022-08-24T03:01:44.878Z,10.18
2022-08-24T03:04:13.812Z,10.09
2022-08-24T03:06:42.361Z,10.13
2022-08-24T03:09:09.333Z,10.24
2022-08-24T03:11:37.709Z,10.39
2022-08-24T03:14:06.491Z,10.32
2022-08-24T03:16:35.580Z,10.41
2022-08-24T03:19:02.316Z,10.42
2022-08-24T03:21:33.378Z,10.35
2022-08-24T03:24:00.147Z,10.29
2022-08-24T03:26:27.115Z,10.41
2022-08-24T03:28:54.150Z,10.23
2022-08-24T03:31:21.488Z,10.21
2022-08-24T03:33:50.177Z,10.37
2022-08-24T03:36:17.462Z,10.25
2022-08-24T03:38:45.034Z,10.14
2022-08-24T03:41:12.581Z,9.96
2022-08-24T03:43:49.213Z,9.91
2022-08-24T03:46:22.206Z,10.07
2022-08-24T03:48:51.188Z,10.20
2022-08-24T03:51:23.375Z,10.14
2022-08-24T03:53:51.905Z,10.25
2022-08-24T03:56:20.579Z,10.32
2022-08-24T03:58:49.409Z,10.40
2022-08-24T04:01:25.626Z,10.35
2022-08-24T04:03:57.334Z,10.34
2022-08-24T04:06:34.440Z,10.26
2022-08-24T04:09:02.404Z,10.16
2022-08-24T04:11:36.543Z,10.14
2022-08-24T04:14:10.360Z,9.98
2022-08-24T04:17:01.871Z,10.17
2022-08-24T04:19:37.032Z,10.16
2022-08-24T04:22:04.518Z,10.20
2022-08-24T04:24:31.972Z,10.08
2022-08-24T04:27:03.276Z,10.06
2022-08-24T04:29:34.539Z,10.14
2022-08-24T04:32:03.024Z,10.32
2022-08-24T04:34:32.616Z,10.22
2022-08-24T04:37:01.571Z,10.03
2022-08-24T04:39:29.230Z,10.12
2022-08-24T04:42:21.515Z,10.17
2022-08-24T04:44:50.795Z,10.17
2022-08-24T04:47:22.070Z,10.20
2022-08-24T04:49:49.268Z,10.17
2022-08-24T04:52:17.374Z,10.18
2022-08-24T04:54:45.532Z,10.20
2022-08-24T04:57:19.934Z,10.01
2022-08-24T04:59:47.553Z,10.20
2022-08-24T05:02:15.127Z,10.22
2022-08-24T05:04:47.379Z,10.39
2022-08-24T05:07:18.036Z,10.44
2022-08-24T05:09:45.538Z,10.45
2022-08-24T05:12:14.967Z,10.53
2022-08-24T05:14:54.380Z,10.51
2022-08-24T05:17:22.629Z,10.44
2022-08-24T05:19:53.312Z,10.46
2022-08-24T05:22:22.007Z,10.40
2022-08-24T05:24:55.010Z,10.60
2022-08-24T05:27:25.245Z,10.39
2022-08-24T05:29:54.582Z,10.66
2022-08-24T05:32:23.431Z,10.64
2022-08-24T05:34:53.214Z,10.74
2022-08-24T05:37:20.766Z,10.75
2022-08-24T05:40:11.265Z,10.88
2022-08-24T05:42:41.317Z,10.92
2022-08-24T05:45:08.811Z,10.93
2022-08-24T05:47:39.303Z,11.11
2022-08-24T05:50:20.363Z,11.10
2022-08-24T05:52:49.172Z,11.13
2022-08-24T05:55:18.181Z,11.20
2022-08-24T05:57:46.592Z,11.15
2022-08-24T06:00:19.760Z,11.45
2022-08-24T06:02:53.115Z,11.55
2022-08-24T06:05:24.357Z,11.68
2022-08-24T06:07:51.542Z,11.81
2022-08-24T06:10:36.305Z,12.11
2022-08-24T06:13:05.892Z,12.53
2022-08-24T06:15:35.470Z,12.72
2022-08-24T06:18:04.238Z,12.96
2022-08-24T06:20:33.375Z,13.03
2022-08-24T06:23:02.370Z,13.18
2022-08-24T06:25:58.871Z,13.33
2022-08-24T06:28:30.544Z,13.34
2022-08-24T06:31:05.052Z,13.60
2022-08-24T06:33:32.460Z,13.81
2022-08-24T06:36:00.068Z,14.06
2022-08-24T06:38:28.843Z,14.41
2022-08-24T06:40:57.794Z,14.54
2022-08-24T06:43:26.364Z,14.73
2022-08-24T06:45:58.339Z,15.04
2022-08-24T06:48:32.425Z,15.14
2022-08-24T06:51:01.424Z,15.38
2022-08-24T06:53:28.908Z,15.48
2022-08-24T06:55:58.992Z,15.64
2022-08-24T06:58:28.875Z,15.60
2022-08-24T07:00:56.951Z,15.77
2022-08-24T07:03:52.170Z,15.95
2022-08-24T07:06:44.366Z,15.98
2022-08-24T07:09:12.636Z,16.22
2022-08-24T07:11:40.004Z,16.27
2022-08-24T07:14:08.415Z,16.44
2022-08-24T07:16:37.759Z,16.30
2022-08-24T07:19:06.638Z,16.55
2022-08-24T07:21:33.426Z,16.57
2022-08-24T07:24:03.320Z,16.69
2022-08-24T07:26:34.776Z,16.92
2022-08-24T07:29:36.526Z,16.94
2022-08-24T07:31:59.380Z,17.07
2022-08-24T07:34:37.080Z,17.16
2022-08-24T07:37:05.568Z,16.88
2022-08-24T07:39:33.292Z,17.32
2022-08-24T07:42:25.284Z,17.48
2022-08-24T07:44:49.447Z,17.64
2022-08-24T07:47:36.958Z,17.61
2022-08-24T07:50:06.726Z,17.85
2022-08-24T07:52:35.328Z,17.98
2022-08-24T07:55:02.290Z,18.11
2022-08-24T07:57:30.408Z,18.13
2022-08-24T08:00:02.588Z,18.27
2022-08-24T08:02:46.624Z,18.33
2022-08-24T08:05:19.902Z,18.47
2022-08-24T08:07:52.474Z,18.58
2022-08-24T08:10:23.431Z,18.55
2022-08-24T08:12:53.057Z,18.70
2022-08-24T08:15:21.390Z,18.49
2022-08-24T08:17:59.158Z,19.05
2022-08-24T08:20:26.940Z,19.16
2022-08-24T08:23:14.562Z,19.08
2022-08-24T08:25:55.216Z,19.37
2022-08-24T08:28:39.358Z,19.47
2022-08-24T08:31:09.330Z,19.31
2022-08-24T08:33:38.537Z,19.49
2022-08-24T08:36:10.168Z,19.58
2022-08-24T08:38:43.395Z,19.64
2022-08-24T08:41:25.986Z,19.74
2022-08-24T08:44:14.577Z,19.87
2022-08-24T08:46:54.191Z,19.96
2022-08-24T08:49:55.666Z,20.08
2022-08-24T08:52:40.102Z,20.28
2022-08-24T08:55:29.389Z,20.11
2022-08-24T08:58:19.383Z,20.18
2022-08-24T09:00:56.172Z,20.35
2022-08-24T09:03:52.717Z,20.34
2022-08-24T09:07:15.807Z,20.67
2022-08-24T09:10:26.523Z,20.69
2022-08-24T09:13:13.898Z,20.71
2022-08-24T09:16:07.185Z,20.76
2022-08-24T09:18:50.969Z,20.92
2022-08-24T09:21:31.996Z,21.08
2022-08-24T09:24:14.636Z,20.97
2022-08-24T09:26:55.698Z,21.10
2022-08-24T09:29:37.524Z,21.16
2022-08-24T09:32:56.135Z,21.38
2022-08-24T09:35:51.687Z,22.31
2022-08-24T09:38:28.791Z,23.43
2022-08-24T09:41:04.648Z,24.25
2022-08-24T09:43:58.355Z,25.05
2022-08-24T09:47:06.274Z,25.45
2022-08-24T09:49:47.417Z,25.44
2022-08-24T09:52:56.734Z,25.42
2022-08-24T09:55:39.307Z,25.52
2022-08-24T09:58:12.999Z,25.75
2022-08-24T10:00:50.575Z,25.64
2022-08-24T10:04:05.991Z,25.15
2022-08-24T10:06:44.674Z,24.70
2022-08-24T10:09:35.298Z,24.55
2022-08-24T10:12:10.862Z,24.57
2022-08-24T10:15:04.626Z,24.54
2022-08-24T10:17:41.426Z,25.00
2022-08-24T10:20:28.812Z,25.02
2022-08-24T10:23:14.882Z,25.15
2022-08-24T10:26:29.920Z,24.51
2022-08-24T10:29:06.260Z,24.52
2022-08-24T10:31:38.557Z,24.67
2022-08-24T10:34:45.724Z,24.70
2022-08-24T10:37:31.813Z,25.33
2022-08-24T10:40:37.771Z,26.00
2022-08-24T10:43:35.578Z,26.31
2022-08-24T10:46:25.245Z,26.55
2022-08-24T10:48:58.154Z,26.74
2022-08-24T10:51:57.987Z,27.10
2022-08-24T10:54:25.198Z,27.27
2022-08-24T10:57:12.081Z,27.76
2022-08-24T11:00:11.518Z,28.18
2022-08-24T11:02:46.434Z,28.23
2022-08-24T11:05:17.599Z,28.79
2022-08-24T11:08:01.055Z,28.68
2022-08-24T11:10:32.546Z,28.89
2022-08-24T11:13:22.211Z,28.49
2022-08-24T11:16:00.159Z,28.24
2022-08-24T11:18:46.655Z,27.55
2022-08-24T11:21:29.928Z,27.02
2022-08-24T11:24:01.748Z,27.36
2022-08-24T11:26:29.820Z,26.94
2022-08-24T11:29:04.359Z,26.52
2022-08-24T11:31:35.970Z,27.24
2022-08-24T11:34:28.624Z,27.44
2022-08-24T11:36:56.667Z,27.25
2022-08-24T11:39:30.672Z,27.37
2022-08-24T11:42:20.263Z,26.86
2022-08-24T11:45:34.290Z,26.68
2022-08-24T11:48:19.340Z,26.44
2022-08-24T11:50:58.079Z,27.07
2022-08-24T11:53:28.962Z,28.22
2022-08-24T11:56:05.400Z,27.83
2022-08-24T11:58:44.588Z,26.77
2022-08-24T12:01:27.418Z,26.94
2022-08-24T12:04:05.929Z,26.65
2022-08-24T12:07:06.544Z,27.29
2022-08-24T12:10:05.773Z,28.15
2022-08-24T12:12:49.999Z,28.52
2022-08-24T12:15:37.324Z,28.52
2022-08-24T12:18:34.687Z,27.81
2022-08-24T12:21:02.415Z,27.65
2022-08-24T12:23:40.047Z,27.64
2022-08-24T12:26:27.601Z,27.92
2022-08-24T12:29:01.470Z,28.52
2022-08-24T12:31:39.658Z,28.29
2022-08-24T12:34:19.090Z,28.97
2022-08-24T12:37:10.799Z,28.28
2022-08-24T12:40:07.504Z,27.40
2022-08-24T12:42:52.495Z,26.98
2022-08-24T12:45:23.170Z,26.61
2022-08-24T12:48:00.952Z,26.31
2022-08-24T12:50:48.481Z,26.20
2022-08-24T12:53:33.932Z,26.51
2022-08-24T12:56:27.257Z,26.28
2022-08-24T12:59:12.381Z,26.06
2022-08-24T13:01:48.079Z,26.12
2022-08-24T13:04:51.479Z,26.28
2022-08-24T13:07:18.930Z,26.18
2022-08-24T13:10:05.233Z,26.12
2022-08-24T13:12:38.202Z,25.92
2022-08-24T13:15:21.671Z,25.76
2022-08-24T13:17:50.658Z,25.58
2022-08-24T13:20:17.168Z,25.65
2022-08-24T13:23:18.923Z,25.77
2022-08-24T13:25:51.702Z,25.72
2022-08-24T13:28:24.445Z,25.48
2022-08-24T13:30:58.064Z,25.40
2022-08-24T13:33:46.650Z,25.36
2022-08-24T13:36:29.307Z,24.97
2022-08-24T13:39:35.715Z,24.72
2022-08-24T13:42:41.367Z,24.72
2022-08-24T13:45:24.727Z,24.95
2022-08-24T13:48:12.404Z,25.21
2022-08-24T13:50:51.320Z,25.30
2022-08-24T13:53:59.971Z,25.31
2022-08-24T13:56:57.463Z,25.49
2022-08-24T13:59:45.082Z,25.19
2022-08-24T14:02:16.045Z,25.28
2022-08-24T14:04:57.818Z,25.16
2022-08-24T14:07:31.115Z,25.15
2022-08-24T14:10:15.118Z,24.62
2022-08-24T14:12:51.673Z,24.68
2022-08-24T14:16:12.187Z,24.63
2022-08-24T14:19:12.496Z,24.62
2022-08-24T14:21:53.848Z,24.43
2022-08-24T14:24:27.453Z,24.66
2022-08-24T14:27:05.807Z,24.80
2022-08-24T14:29:45.319Z,24.85
2022-08-24T14:32:28.640Z,24.49
2022-08-24T14:35:15.929Z,24.56
2022-08-24T14:38:04.166Z,24.86
2022-08-24T14:40:42.201Z,24.99
2022-08-24T14:43:10.865Z,25.17
2022-08-24T14:45:54.062Z,24.89
2022-08-24T14:48:42.905Z,25.15
2022-08-24T14:51:20.489Z,25.05
2022-08-24T14:54:24.360Z,25.02
2022-08-24T14:57:12.568Z,25.25
2022-08-24T14:59:53.749Z,25.27
2022-08-24T15:02:33.961Z,25.13
2022-08-24T15:05:16.251Z,25.12
2022-08-24T15:08:09.111Z,24.96
2022-08-24T15:10:57.501Z,24.80
2022-08-24T15:14:03.140Z,24.60
2022-08-24T15:16:43.313Z,24.66
2022-08-24T15:19:47.058Z,24.58
2022-08-24T15:22:36.388Z,24.57
2022-08-24T15:25:15.566Z,24.64
2022-08-24T15:27:54.625Z,24.41
2022-08-24T15:30:30.954Z,24.11
2022-08-24T15:33:06.253Z,24.34
2022-08-24T15:35:36.614Z,24.38
2022-08-24T15:38:21.548Z,24.60
2022-08-24T15:40:49.726Z,24.67
2022-08-24T15:43:17.447Z,24.48
2022-08-24T15:45:49.487Z,24.59
2022-08-24T15:48:18.052Z,24.54
2022-08-24T15:50:46.960Z,24.39
2022-08-24T15:53:14.228Z,24.28
2022-08-24T15:55:44.572Z,24.15
2022-08-24T15:58:18.930Z,24.19
2022-08-24T16:01:04.844Z,23.94
2022-08-24T16:03:58.754Z,23.96
2022-08-24T16:06:33.804Z,23.88
2022-08-24T16:09:03.929Z,23.91
2022-08-24T16:11:40.447Z,23.76
2022-08-24T16:14:15.849Z,24.02
2022-08-24T16:16:44.645Z,23.97
2022-08-24T16:19:23.156Z,23.84
2022-08-24T16:21:58.398Z,23.85
2022-08-24T16:24:35.967Z,23.61
2022-08-24T16:27:10.308Z,23.53
2022-08-24T16:29:45.527Z,23.45
2022-08-24T16:32:32.720Z,23.29
2022-08-24T16:35:10.955Z,23.29
2022-08-24T16:37:41.566Z,23.09
2022-08-24T16:40:09.723Z,23.04
2022-08-24T16:42:40.294Z,22.96
2022-08-24T16:45:10.765Z,22.82
2022-08-24T16:47:38.719Z,22.98
2022-08-24T16:50:07.483Z,23.01
2022-08-24T16:52:34.386Z,22.90
2022-08-24T16:55:03.533Z,22.87
2022-08-24T16:57:36.420Z,22.93
2022-08-24T17:00:15.567Z,22.92
2022-08-24T17:02:48.451Z,22.87
2022-08-24T17:05:17.890Z,22.97
2022-08-24T17:07:45.805Z,22.94
2022-08-24T17:10:16.496Z,22.92
2022-08-24T17:12:43.639Z,22.90
2022-08-24T17:15:11.825Z,22.90
2022-08-24T17:17:40.607Z,22.74
2022-08-24T17:20:11.014Z,22.79
2022-08-24T17:22:39.293Z,22.67
2022-08-24T17:25:06.680Z,22.72
2022-08-24T17:27:34.021Z,22.70
2022-08-24T17:30:02.498Z,22.60
2022-08-24T17:32:31.139Z,22.52
2022-08-24T17:34:58.909Z,22.31
2022-08-24T17:37:28.419Z,22.18
2022-08-24T17:39:57.276Z,22.19
2022-08-24T17:42:49.132Z,22.08
2022-08-24T17:45:12.952Z,21.98
2022-08-24T17:47:41.474Z,21.77
2022-08-24T17:50:10.267Z,21.69
2022-08-24T17:52:39.250Z,21.64
2022-08-24T17:55:09.441Z,21.66
2022-08-24T17:57:37.579Z,21.44
2022-08-24T18:00:07.572Z,21.26
2022-08-24T18:02:42.302Z,21.19
2022-08-24T18:05:12.429Z,21.07
2022-08-24T18:07:53.067Z,20.70
2022-08-24T18:10:25.419Z,20.71
2022-08-24T18:12:53.130Z,20.55
2022-08-24T18:15:20.517Z,20.26
2022-08-24T18:17:51.272Z,20.25
2022-08-24T18:20:22.641Z,20.14
2022-08-24T18:22:53.730Z,19.86
2022-08-24T18:25:24.926Z,19.83
2022-08-24T18:27:57.204Z,19.72
2022-08-24T18:30:28.940Z,19.45
2022-08-24T18:32:59.899Z,19.46
2022-08-24T18:35:30.781Z,19.49
2022-08-24T18:38:00.116Z,19.37
2022-08-24T18:40:33.192Z,19.27
2022-08-24T18:43:02.968Z,19.28
2022-08-24T18:45:31.765Z,19.12
2022-08-24T18:47:58.715Z,19.02
2022-08-24T18:50:29.012Z,19.21
2022-08-24T18:52:57.427Z,19.27
2022-08-24T18:55:24.535Z,19.30
2022-08-24T18:57:51.875Z,19.09
2022-08-24T19:00:20.563Z,18.80
2022-08-24T19:02:50.710Z,18.72
2022-08-24T19:05:22.507Z,18.73
2022-08-24T19:07:52.026Z,18.53
2022-08-24T19:10:23.095Z,18.44
2022-08-24T19:12:53.099Z,18.37
2022-08-24T19:15:32.249Z,18.27
2022-08-24T19:18:09.739Z,18.21
2022-08-24T19:20:39.011Z,18.26
2022-08-24T19:23:11.639Z,18.22
2022-08-24T19:25:42.846Z,18.20
2022-08-24T19:28:11.441Z,18.12
2022-08-24T19:30:39.679Z,18.26
2022-08-24T19:33:10.503Z,18.24
2022-08-24T19:35:42.392Z,18.09
2022-08-24T19:38:10.055Z,18.04
2022-08-24T19:40:39.011Z,18.20
2022-08-24T19:43:08.561Z,18.11
2022-08-24T19:45:55.569Z,18.05
2022-08-24T19:48:24.135Z,17.87
2022-08-24T19:50:52.916Z,17.74
2022-08-24T19:53:19.878Z,17.76
2022-08-24T19:55:50.108Z,17.46
2022-08-24T19:58:30.421Z,17.49
2022-08-24T20:01:04.856Z,17.43
2022-08-24T20:03:35.535Z,17.43
2022-08-24T20:06:06.740Z,17.35
2022-08-24T20:08:33.722Z,17.40
2022-08-24T20:11:01.792Z,17.39
2022-08-24T20:13:31.762Z,17.34
2022-08-24T20:16:00.685Z,17.03
2022-08-24T20:18:33.160Z,17.20
2022-08-24T20:21:06.674Z,17.07
2022-08-24T20:23:36.714Z,17.12
2022-08-24T20:26:07.360Z,16.95
2022-08-24T20:28:50.567Z,16.87
2022-08-24T20:31:20.225Z,17.04
2022-08-24T20:33:57.371Z,17.02
2022-08-24T20:36:36.419Z,16.78
2022-08-24T20:39:08.162Z,16.84
2022-08-24T20:41:37.334Z,16.94
2022-08-24T20:44:09.142Z,16.93
2022-08-24T20:46:38.277Z,16.87
2022-08-24T20:49:06.974Z,16.95
2022-08-24T20:51:37.255Z,16.80
2022-08-24T20:54:06.227Z,16.71
2022-08-24T20:56:37.869Z,16.73
2022-08-24T20:59:09.734Z,16.69
2022-08-24T21:01:43.689Z,16.57
2022-08-24T21:04:12.026Z,16.58
2022-08-24T21:06:42.353Z,16.52
2022-08-24T21:09:14.112Z,16.60
2022-08-24T21:11:42.014Z,16.62
2022-08-24T21:14:09.640Z,16.46
2022-08-24T21:16:39.655Z,16.46
2022-08-24T21:19:08.638Z,16.38
2022-08-24T21:21:39.562Z,16.38
2022-08-24T21:24:10.775Z,16.29
2022-08-24T21:26:39.647Z,16.31
2022-08-24T21:29:08.524Z,16.36
2022-08-24T21:31:36.080Z,16.33
2022-08-24T21:34:22.062Z,16.21
2022-08-24T21:36:50.344Z,16.11
2022-08-24T21:39:21.118Z,16.10
2022-08-24T21:41:48.403Z,16.06
2022-08-24T21:44:16.878Z,16.05
2022-08-24T21:46:43.664Z,16.10
2022-08-24T21:49:12.250Z,16.04
2022-08-24T21:51:40.183Z,15.99
2022-08-24T21:54:06.862Z,15.97
2022-08-24T21:56:34.503Z,15.97
2022-08-24T21:59:03.169Z,15.78
2022-08-24T22:01:30.131Z,15.65
2022-08-24T22:04:00.724Z,15.60
2022-08-24T22:06:31.468Z,15.60
2022-08-24T22:09:00.800Z,15.38
2022-08-24T22:11:29.258Z,15.47
2022-08-24T22:13:56.778Z,15.39
2022-08-24T22:16:24.628Z,15.33
2022-08-24T22:18:52.432Z,15.44
2022-08-24T22:21:23.398Z,15.31
2022-08-24T22:23:52.648Z,15.39
2022-08-24T22:26:24.076Z,15.37
2022-08-24T22:28:51.822Z,15.24
2022-08-24T22:31:29.473Z,15.37
2022-08-24T22:34:00.617Z,15.38
2022-08-24T22:36:29.109Z,15.31
2022-08-24T22:38:59.195Z,15.49
2022-08-24T22:41:29.031Z,15.47
2022-08-24T22:44:18.314Z,15.20
2022-08-24T22:46:52.482Z,15.40
2022-08-24T22:49:21.303Z,15.34
2022-08-24T22:51:49.477Z,15.22
2022-08-24T22:54:16.581Z,15.02
2022-08-24T22:56:46.500Z,15.24
2022-08-24T22:59:16.183Z,15.00
2022-08-24T23:01:45.721Z,15.25
2022-08-24T23:04:19.089Z,15.24
2022-08-24T23:06:49.084Z,15.10
2022-08-24T23:09:18.479Z,15.10
2022-08-24T23:11:47.102Z,14.93
2022-08-24T23:14:14.517Z,15.08
2022-08-24T23:16:44.988Z,15.07
2022-08-24T23:19:32.795Z,15.14
2022-08-24T23:21:59.960Z,15.13
2022-08-24T23:24:28.258Z,15.11
2022-08-24T23:26:56.270Z,15.01
2022-08-24T23:29:23.147Z,15.19
2022-08-24T23:31:50.079Z,15.09
2022-08-24T23:34:16.883Z,15.18
2022-08-24T23:36:45.957Z,15.11
2022-08-24T23:39:13.148Z,14.98
2022-08-24T23:41:44.145Z,15.05
2022-08-24T23:44:22.976Z,15.03
2022-08-24T23:46:49.872Z,15.00
2022-08-24T23:49:19.537Z,15.00
2022-08-24T23:51:46.864Z,14.85
2022-08-24T23:54:13.748Z,14.86
2022-08-24T23:56:43.773Z,14.60
2022-08-24T23:59:15.140Z,14.57
